Flight Track Log - Related Links

Times and Time Zones

All times are in EDT time to prevent confusion due to time zone crossing. See the CTL13 flight status page for this flight to view local times or setup timezone preferences in your user account.

Time Position Orientation Groundspeed Altitude Reporting Facility
EDT Latitude Longitude Course Direction KTS MPH feet Rate Location/Type
Mon 06:40:45 PM 41.5125 -81.7061 335° Northwest 123 142 1,000  Level Cleveland Center
Mon 06:41:27 PM 41.5353 -81.7206 335° Northwest 134 154 1,700 826 Climbing Cleveland Center
Mon 06:42:34 PM 41.5789 -81.7378 344° North 151 174 2,500 797 Climbing Cleveland Center
Mon 06:43:35 PM 41.5953 -81.7797 298° West 130 150 3,400 793 Climbing Cleveland Center
Mon 06:44:35 PM 41.5967 -81.8242 272° West 125 144 4,100 661 Climbing Cleveland Center
Mon 06:45:42 PM 41.5983 -81.8797 272° West 132 152 4,800 661 Climbing Cleveland Center
Mon 06:46:42 PM 41.5997 -81.9272 272° West 125 144 5,500 595 Climbing Cleveland Center
Mon 06:47:43 PM 41.5806 -81.9656 236° Southwest 126 145 6,000 310 Climbing Cleveland Center
Mon 06:48:38 PM 41.5633 -82.0067 241° Southwest 141 162 6,100 58 Climbing Cleveland Center
Mon 06:49:26 PM 41.5503 -82.0453 246° West 155 178 6,100 -52 Level Cleveland Center
Mon 06:50:33 PM 41.5247 -82.1031 239° Southwest 156 180 6,000 -47 Descending Cleveland Center
Mon 06:51:34 PM 41.5031 -82.1525 240° Southwest 150 173 6,000 50 Level Cleveland Center
Mon 06:52:34 PM 41.4836 -82.1992 241° Southwest 145 167 6,100 50 Climbing Cleveland Center
Mon 06:53:35 PM 41.4642 -82.2458 241° Southwest 146 168 6,100 -50 Level Cleveland Center
Mon 06:54:35 PM 41.4428 -82.2950 240° Southwest 151 174 6,000 149 Descending Cleveland Center
Mon 06:55:36 PM 41.4211 -82.3414 238° Southwest 150 173 6,400 443 Climbing Cleveland Center
Mon 06:56:37 PM 41.4017 -82.3881 241° Southwest 138 159 6,900 115 Climbing Cleveland Center
Mon 06:58:00 PM 41.3683 -82.4517 235° Southwest  Level FlightAware Approximate
Mon 07:05:00 PM 41.2191 -82.7903 242° Southwest  Level FlightAware Approximate
Mon 07:06:00 PM 41.1991 -82.8394 242° Southwest  Level FlightAware Approximate
Mon 07:07:00 PM 41.1790 -82.8886 242° Southwest  Level FlightAware Approximate
Mon 07:08:00 PM 41.1589 -82.9377 241° Southwest  Level FlightAware Approximate
Mon 07:09:00 PM 41.1388 -82.9868 241° Southwest  Level FlightAware Approximate
Mon 07:09:28 PM 41.1347 -82.9886 238° Southwest 156 180 8,000  Level Indianapolis Center
Mon 07:10:00 PM 41.1170 -83.0346 238° Southwest  Level FlightAware Approximate
Mon 07:10:30 PM 41.1125 -83.0386 239° Southwest 157 181 8,000  Level Indianapolis Center
Mon 07:11:00 PM 41.0947 -83.0819 238° Southwest  Level FlightAware Approximate
Mon 07:11:31 PM 41.0894 -83.0875 238° Southwest 156 180 8,000  Level Indianapolis Center
Mon 07:12:00 PM 41.0723 -83.1292 238° Southwest  Level FlightAware Approximate
Mon 07:12:33 PM 41.0661 -83.1386 239° Southwest 159 183 8,000  Level Indianapolis Center
Mon 07:13:00 PM 41.0499 -83.1764 238° Southwest  Level FlightAware Approximate
Mon 07:13:34 PM 41.0447 -83.1897 241° Southwest 159 183 8,000  Level Indianapolis Center
Mon 07:14:00 PM 41.0275 -83.2236 238° Southwest  Level FlightAware Approximate
Mon 07:14:36 PM 41.0200 -83.2383 236° Southwest 158 182 8,000  Level Indianapolis Center
Mon 07:15:38 PM 40.9961 -83.2958 241° Southwest 153 176 8,000  Level Indianapolis Center
Mon 07:16:39 PM 40.9728 -83.3447 238° Southwest 155 178 8,000  Level Indianapolis Center
Mon 07:17:41 PM 40.9508 -83.3950 240° Southwest 155 178 8,000  Level Indianapolis Center
Mon 07:18:43 PM 40.9275 -83.4436 238° Southwest 156 180 8,000 49 Level Indianapolis Center
Mon 07:19:44 PM 40.9039 -83.4928 238° Southwest 157 181 8,100 49 Climbing Indianapolis Center
Mon 07:20:46 PM 40.8844 -83.5406 242° Southwest 156 180 8,100 -49 Level Indianapolis Center
Mon 07:21:47 PM 40.8628 -83.5894 240° Southwest 154 177 8,000 -49 Descending Indianapolis Center
Mon 07:22:49 PM 40.8342 -83.6458 236° Southwest 156 180 8,000  Level Indianapolis Center
Mon 07:23:51 PM 40.8097 -83.6933 236° Southwest 156 180 8,000  Level Indianapolis Center
Mon 07:24:52 PM 40.7836 -83.7408 234° Southwest 157 181 8,000  Level Indianapolis Center
Mon 07:25:54 PM 40.7592 -83.7892 236° Southwest 158 182 8,000  Level Indianapolis Center
Mon 07:26:55 PM 40.7339 -83.8372 235° Southwest 158 182 8,000  Level Indianapolis Center
Mon 07:27:57 PM 40.7111 -83.8856 238° Southwest 156 180 8,000  Level Indianapolis Center
Mon 07:28:58 PM 40.6869 -83.9339 237° Southwest 156 180 8,000  Level Indianapolis Center
Mon 07:30:11 PM 40.6572 -83.9972 238° Southwest 151 174 8,000  Level Indianapolis Center
Mon 07:31:01 PM 40.6422 -84.0303 239° Southwest 154 177 8,000 -54 Level Indianapolis Center
Mon 07:32:03 PM 40.6175 -84.0772 235° Southwest 155 178 7,900 -45 Descending Indianapolis Center
Mon 07:33:14 PM 40.5833 -84.1414 235° Southwest 156 180 7,900  Level Indianapolis Center
Mon 07:34:06 PM 40.5644 -84.1800 237° Southwest 155 178 7,900  Level Indianapolis Center
Mon 07:35:07 PM 40.5367 -84.2256 231° Southwest 156 180 7,900  Level Indianapolis Center
Mon 07:36:09 PM 40.5131 -84.2719 236° Southwest 154 177 7,900 49 Level Indianapolis Center
Mon 07:37:10 PM 40.4889 -84.3192 236° Southwest 154 177 8,000  Climbing Indianapolis Center
Mon 07:38:12 PM 40.4642 -84.3664 235° Southwest 155 178 7,900 -49 Descending Indianapolis Center
Mon 07:39:13 PM 40.4400 -84.4119 235° Southwest 152 175 7,900  Level Indianapolis Center
Mon 07:40:15 PM 40.4144 -84.4567 233° Southwest 152 175 7,900  Level Indianapolis Center
Mon 07:41:19 PM 40.3842 -84.5125 235° Southwest 156 180 7,900 49 Level Indianapolis Center
Mon 07:42:18 PM 40.3642 -84.5514 236° Southwest 155 178 8,000  Climbing Indianapolis Center
Mon 07:43:19 PM 40.3372 -84.6089 238° Southwest 157 181 7,900 -49 Descending Indianapolis Center
Mon 07:44:21 PM 40.3133 -84.6547 236° Southwest 154 177 7,900  Level Indianapolis Center
Mon 07:45:22 PM 40.2900 -84.7031 238° Southwest 154 177 7,900  Level Indianapolis Center
Mon 07:46:24 PM 40.2647 -84.7533 237° Southwest 157 181 7,900  Level Indianapolis Center
Mon 07:47:25 PM 40.2442 -84.7983 239° Southwest 153 176 7,900  Level Indianapolis Center
Mon 07:48:27 PM 40.2203 -84.8447 236° Southwest 152 175 7,900  Level Indianapolis Center
Mon 07:49:30 PM 40.1953 -84.8964 238° Southwest 154 177 7,900 49 Level Indianapolis Center
Mon 07:50:30 PM 40.1736 -84.9419 238° Southwest 154 177 8,000 49 Climbing Indianapolis Center
Mon 07:51:32 PM 40.1514 -84.9889 238° Southwest 153 176 8,000  Level Indianapolis Center
Mon 07:52:33 PM 40.1300 -85.0364 240° Southwest 152 175 8,000 -49 Level Indianapolis Center
Mon 07:53:35 PM 40.1183 -85.0886 254° West 151 174 7,900  Descending Indianapolis Center
Mon 07:54:36 PM 40.1067 -85.1531 257° West 151 174 8,000  Climbing Indianapolis Center
Mon 07:55:38 PM 40.0978 -85.2047 257° West 150 173 7,900  Descending Indianapolis Center
Mon 07:56:39 PM 40.0853 -85.2550 252° West 147 169 8,000 49 Climbing Indianapolis Center
Mon 07:57:41 PM 40.0731 -85.3072 253° West 149 171 8,000  Level Indianapolis Center
Mon 07:58:42 PM 40.0631 -85.3578 256° West 146 168 8,000 -293 Level Indianapolis Center
Mon 07:59:44 PM 40.0511 -85.4133 254° West 155 178 7,400 -581 Descending Indianapolis Center
Mon 08:00:46 PM 40.0394 -85.4700 255° West 160 184 6,800 -634 Descending Indianapolis Center
Mon 08:01:47 PM 40.0272 -85.5281 255° West 164 189 6,100 -683 Descending Indianapolis Center
Mon 08:02:49 PM 40.0122 -85.5978 254° West 166 191 5,400 -683 Descending Indianapolis Center
Mon 08:03:50 PM 39.9992 -85.6561 254° West 167 192 4,700 -634 Descending Indianapolis Center
Mon 08:04:52 PM 39.9867 -85.7142 254° West 167 192 4,100 -488 Descending Indianapolis Center
Mon 08:05:53 PM 39.9747 -85.7714 255° West 166 191 3,700 -439 Descending Indianapolis Center
Mon 08:06:55 PM 39.9628 -85.8303 255° West 166 191 3,200 -390 Descending Indianapolis Center
Mon 08:07:56 PM 39.9517 -85.8892 256° West 167 192 2,900 -146 Descending Indianapolis Center
Mon 08:08:58 PM 39.9419 -85.9439 257° West 161 185 2,900  Level Indianapolis Center
Mon 08:09:59 PM 39.9322 -85.9956 256° West 153 176 2,900  Level Indianapolis Center
Mon 08:11:01 PM 39.9186 -86.0592 254° West 151 174 2,900  Level Indianapolis Center
Mon 08:12:02 PM 39.9072 -86.1111 254° West 151 174 2,900  Level Indianapolis Center
Mon 08:13:04 PM 39.8969 -86.1619 255° West 149 171 2,900 -244 Level Indianapolis Center
Mon 08:14:05 PM 39.8892 -86.2153 259° West 150 173 2,400 -341 Descending Indianapolis Center
Mon 08:15:07 PM 39.8900 -86.2764 271° West 151 174 2,200 -194 Descending Indianapolis Center

Login

Don't have an account? Register now (free) for customized features, flight alerts, and more!